createdAt,value
2023-03-23T00:01:43.881Z,0.7
2023-03-23T00:04:45.837Z,0.8
2023-03-23T00:07:47.792Z,0.8
2023-03-23T00:10:49.746Z,1.1
2023-03-23T00:13:51.694Z,1
2023-03-23T00:16:53.726Z,0.8
2023-03-23T00:19:55.595Z,1
2023-03-23T00:22:57.554Z,0.7
2023-03-23T00:25:59.516Z,1
2023-03-23T00:29:01.477Z,0.7
2023-03-23T00:32:03.442Z,1.1
2023-03-23T00:35:05.399Z,1
2023-03-23T00:38:07.347Z,0.8
2023-03-23T00:41:09.326Z,0.6
2023-03-23T00:44:11.278Z,0.7
2023-03-23T00:47:13.240Z,0.6
2023-03-23T00:50:15.202Z,0.6
2023-03-23T00:53:17.180Z,0.7
2023-03-23T00:56:19.146Z,0.8
2023-03-23T00:59:21.117Z,0.7
2023-03-23T01:02:23.149Z,0.7
2023-03-23T01:05:25.097Z,0.8
2023-03-23T01:08:27.069Z,0.7
2023-03-23T01:11:29.027Z,0.6
2023-03-23T01:14:30.998Z,0.6
2023-03-23T01:17:32.973Z,0.7
2023-03-23T01:20:34.906Z,0.7
2023-03-23T01:23:36.872Z,0.9
2023-03-23T01:26:38.831Z,0.7
2023-03-23T01:29:40.803Z,0.5
2023-03-23T01:32:42.764Z,0.7
2023-03-23T01:35:44.829Z,0.8
2023-03-23T01:38:46.687Z,0.6
2023-03-23T01:41:48.648Z,0.7
2023-03-23T01:44:50.613Z,0.6
2023-03-23T01:47:52.575Z,0.7
2023-03-23T01:50:54.525Z,0.7
2023-03-23T01:53:56.487Z,0.6
2023-03-23T01:56:58.464Z,0.7
2023-03-23T02:00:00.428Z,0.6
2023-03-23T02:03:02.383Z,0.7
2023-03-23T02:06:04.383Z,0.7
2023-03-23T02:09:10.326Z,0.7
2023-03-23T02:12:08.372Z,0.5
2023-03-23T02:15:10.348Z,0.8
2023-03-23T02:18:12.290Z,0.7
2023-03-23T02:21:14.259Z,0.5
2023-03-23T02:24:16.223Z,0.6
2023-03-23T02:27:18.173Z,0.6
2023-03-23T02:30:20.182Z,0.8
2023-03-23T02:33:22.131Z,0.7
2023-03-23T02:36:24.140Z,0.8
2023-03-23T02:39:26.064Z,0.5
2023-03-23T02:42:28.028Z,0.7
2023-03-23T02:45:29.968Z,0.7
2023-03-23T02:48:31.931Z,0.6
2023-03-23T02:51:33.892Z,0.7
2023-03-23T02:54:35.875Z,0.7
2023-03-23T02:57:40.482Z,0.8
2023-03-23T03:00:39.788Z,0.8
2023-03-23T03:03:41.749Z,1
2023-03-23T03:06:43.740Z,0.9
2023-03-23T03:09:45.670Z,0.7
2023-03-23T03:12:47.638Z,0.8
2023-03-23T03:15:49.613Z,0.9
2023-03-23T03:18:51.617Z,0.8
2023-03-23T03:21:53.528Z,0.8
2023-03-23T03:24:55.489Z,0.7
2023-03-23T03:27:57.451Z,0.9
2023-03-23T03:30:59.461Z,0.8
2023-03-23T03:34:01.393Z,0.8
2023-03-23T03:37:03.351Z,1.1
2023-03-23T03:40:05.359Z,0.9
2023-03-23T03:43:07.311Z,1
2023-03-23T03:46:09.290Z,0.9
2023-03-23T03:49:11.247Z,1
2023-03-23T03:52:13.198Z,1
2023-03-23T03:55:15.192Z,1
2023-03-23T04:01:19.167Z,1.2
2023-03-23T04:04:21.101Z,0.9
2023-03-23T04:07:23.270Z,1.1
2023-03-23T04:10:32.559Z,0.9
2023-03-23T04:13:27.006Z,1
2023-03-23T04:16:28.970Z,1
2023-03-23T04:19:30.927Z,1.1
2023-03-23T04:22:33.065Z,1.1
2023-03-23T04:25:34.919Z,1
2023-03-23T04:28:37.036Z,1.3
2023-03-23T04:31:39.056Z,1.3
2023-03-23T04:34:41.067Z,1.3
2023-03-23T04:37:43.032Z,1.4
2023-03-23T04:40:45.026Z,1.4
2023-03-23T04:43:46.976Z,1.1
2023-03-23T04:46:48.947Z,1.2
2023-03-23T04:49:50.893Z,1.2
2023-03-23T04:52:52.855Z,1.2
2023-03-23T04:55:54.839Z,1.4
2023-03-23T04:58:56.796Z,1.4
2023-03-23T05:02:13.830Z,1.3
2023-03-23T05:05:00.788Z,1.1
2023-03-23T05:08:02.750Z,1.4
2023-03-23T05:11:04.740Z,1.3
2023-03-23T05:14:06.704Z,1.2
2023-03-23T05:17:08.670Z,1.2
2023-03-23T05:20:10.632Z,1.2
2023-03-23T05:23:12.600Z,1.1
2023-03-23T05:26:14.558Z,1.4
2023-03-23T05:29:16.588Z,1.3
2023-03-23T05:32:18.472Z,1.2
2023-03-23T05:35:20.732Z,1.2
2023-03-23T05:38:22.443Z,1.1
2023-03-23T05:41:24.419Z,1.1
2023-03-23T05:44:26.422Z,1.2
2023-03-23T05:47:28.338Z,1
2023-03-23T05:50:30.312Z,1.2
2023-03-23T05:53:32.255Z,1.2
2023-03-23T05:56:34.238Z,1.3
2023-03-23T05:59:36.217Z,1.4
2023-03-23T06:02:38.276Z,1.1
2023-03-23T06:05:40.349Z,1.3
2023-03-23T06:08:42.133Z,1.3
2023-03-23T06:11:44.100Z,1.2
2023-03-23T06:14:46.116Z,1.2
2023-03-23T06:17:48.141Z,1.5
2023-03-23T06:20:50.182Z,1.1
2023-03-23T06:23:52.066Z,1.1
2023-03-23T06:26:54.035Z,1.1
2023-03-23T06:29:56.038Z,1.1
2023-03-23T06:32:58.154Z,1.2
2023-03-23T06:36:00.176Z,1.5
2023-03-23T06:39:02.072Z,1.2
2023-03-23T06:42:04.051Z,1.5
2023-03-23T06:45:06.003Z,1.5
2023-03-23T06:48:08.362Z,1.4
2023-03-23T06:51:09.920Z,1.3
2023-03-23T06:54:11.948Z,1.2
2023-03-23T06:57:13.904Z,1.2
2023-03-23T07:00:15.907Z,1.3
2023-03-23T07:03:17.891Z,1.4
2023-03-23T07:06:19.854Z,1.3
2023-03-23T07:09:25.590Z,1.4
2023-03-23T07:12:23.807Z,1.1
2023-03-23T07:15:25.816Z,1.2
2023-03-23T07:18:27.733Z,1.3
2023-03-23T07:21:29.698Z,1.3
2023-03-23T07:24:31.655Z,1.4
2023-03-23T07:27:33.612Z,1.2
2023-03-23T07:30:35.577Z,1.3
2023-03-23T07:33:37.593Z,1.4
2023-03-23T07:36:39.772Z,1.4
2023-03-23T07:39:41.726Z,1.5
2023-03-23T07:42:43.683Z,1.5
2023-03-23T07:45:45.644Z,1.6
2023-03-23T07:48:47.610Z,1.6
2023-03-23T07:51:49.567Z,1.6
2023-03-23T07:54:51.544Z,1.2
2023-03-23T07:57:53.519Z,1.4
2023-03-23T08:00:55.449Z,1.4
2023-03-23T08:03:57.453Z,1.5
2023-03-23T08:06:59.452Z,1.4
2023-03-23T08:10:01.418Z,1.4
2023-03-23T08:13:03.426Z,1.4
2023-03-23T08:16:05.371Z,1.2
2023-03-23T08:19:08.304Z,1.3
2023-03-23T08:22:09.307Z,1.3
2023-03-23T08:25:11.264Z,1.5
2023-03-23T08:28:13.229Z,1.2
2023-03-23T08:31:15.184Z,1.4
2023-03-23T08:34:17.192Z,1.3
2023-03-23T08:37:19.144Z,1.3
2023-03-23T08:40:21.133Z,1.2
2023-03-23T08:43:23.072Z,1.3
2023-03-23T08:46:25.359Z,1.2
2023-03-23T08:49:26.983Z,1.6
2023-03-23T08:52:29.003Z,1.3
2023-03-23T08:55:30.956Z,1.1
2023-03-23T08:58:32.955Z,1.4
2023-03-23T09:01:34.930Z,1.2
2023-03-23T09:04:36.905Z,1.2
2023-03-23T09:07:38.972Z,1.2
2023-03-23T09:10:40.930Z,1.4
2023-03-23T09:13:42.904Z,1.2
2023-03-23T09:16:44.887Z,1.6
2023-03-23T09:19:46.857Z,1.5
2023-03-23T09:22:48.800Z,1.2
2023-03-23T09:25:50.771Z,1.2
2023-03-23T09:28:52.728Z,1.3
2023-03-23T09:31:54.681Z,1.4
2023-03-23T09:34:56.728Z,1.4
2023-03-23T09:37:58.681Z,1.4
2023-03-23T09:41:00.653Z,1.4
2023-03-23T09:44:02.628Z,1.2
2023-03-23T09:47:04.566Z,1.4
2023-03-23T09:50:06.562Z,1.1
2023-03-23T09:53:08.511Z,1.1
2023-03-23T09:56:10.531Z,1.2
2023-03-23T09:59:12.538Z,1
2023-03-23T10:02:14.519Z,1
2023-03-23T10:05:16.482Z,1.2
2023-03-23T10:08:18.456Z,1
2023-03-23T10:11:20.424Z,1
2023-03-23T10:14:22.388Z,1
2023-03-23T10:17:24.396Z,1.2
2023-03-23T10:20:26.311Z,1.2
2023-03-23T10:23:28.271Z,1.2
2023-03-23T10:26:30.252Z,1.2
2023-03-23T10:29:32.212Z,1.1
2023-03-23T10:32:34.175Z,1
2023-03-23T10:35:36.166Z,1.1
2023-03-23T10:38:38.310Z,0.8
2023-03-23T10:41:40.104Z,0.8
2023-03-23T10:44:42.033Z,0.9
2023-03-23T10:47:44.019Z,0.9
2023-03-23T10:50:45.973Z,0.9
2023-03-23T10:53:47.932Z,0.8
2023-03-23T10:56:58.926Z,1.1
2023-03-23T10:59:51.834Z,1
2023-03-23T11:02:53.799Z,1.1
2023-03-23T11:05:55.779Z,1.1
2023-03-23T11:08:57.728Z,1.3
2023-03-23T11:12:02.195Z,1.5
2023-03-23T11:15:01.630Z,1.3
2023-03-23T11:18:03.587Z,1.3
2023-03-23T11:21:05.574Z,1.1
2023-03-23T11:24:10.079Z,1.4
2023-03-23T11:27:09.533Z,1.2
2023-03-23T11:30:11.497Z,1.3
2023-03-23T11:33:13.450Z,1.1
2023-03-23T11:36:15.417Z,1.1
2023-03-23T11:39:17.381Z,1.2
2023-03-23T11:42:19.349Z,1.2
2023-03-23T11:45:21.311Z,1.1
2023-03-23T11:48:23.269Z,0.8
2023-03-23T11:51:25.229Z,1.1
2023-03-23T11:54:27.182Z,1
2023-03-23T11:57:29.169Z,0.9
2023-03-23T12:00:31.105Z,1
2023-03-23T12:03:33.083Z,1
2023-03-23T12:06:35.088Z,0.9
2023-03-23T12:09:37.030Z,1
2023-03-23T12:12:39.039Z,0.8
2023-03-23T12:15:41.038Z,0.8
2023-03-23T12:18:42.937Z,0.9
2023-03-23T12:21:44.902Z,0.7
2023-03-23T12:24:46.858Z,0.7
2023-03-23T12:27:48.852Z,0.8
2023-03-23T12:30:50.820Z,0.7
2023-03-23T12:33:52.750Z,0.8
2023-03-23T12:36:54.763Z,0.9
2023-03-23T12:39:56.690Z,0.7
2023-03-23T12:42:58.656Z,0.8
2023-03-23T12:46:00.651Z,1
2023-03-23T12:49:02.630Z,0.8
2023-03-23T12:52:04.605Z,0.7
2023-03-23T12:55:06.573Z,0.8
2023-03-23T12:58:08.581Z,0.8
2023-03-23T13:01:10.497Z,0.8
2023-03-23T13:04:12.438Z,0.9
2023-03-23T13:07:14.406Z,0.6
2023-03-23T13:10:16.377Z,0.5
2023-03-23T13:13:21.188Z,0.7
2023-03-23T13:16:20.508Z,0.7
2023-03-23T13:19:22.464Z,0.7
2023-03-23T13:22:24.414Z,0.6
2023-03-23T13:25:26.458Z,0.8
2023-03-23T13:28:28.720Z,0.6
2023-03-23T13:31:30.386Z,0.8
2023-03-23T13:34:32.332Z,0.7
2023-03-23T13:37:34.286Z,0.8
2023-03-23T13:40:36.278Z,0.9
2023-03-23T13:43:38.188Z,0.8
2023-03-23T13:46:40.189Z,0.8
2023-03-23T13:49:42.134Z,0.7
2023-03-23T13:52:44.168Z,0.9
2023-03-23T13:55:46.049Z,0.7
2023-03-23T13:58:49.263Z,0.7
2023-03-23T14:01:49.972Z,0.7
2023-03-23T14:04:51.909Z,0.8
2023-03-23T14:07:56.506Z,0.7
2023-03-23T14:10:55.848Z,1.1
2023-03-23T14:13:57.797Z,0.7
2023-03-23T14:16:59.758Z,0.7
2023-03-23T14:20:01.774Z,0.7
2023-03-23T14:23:03.680Z,0.7
2023-03-23T14:26:05.683Z,0.9
2023-03-23T14:29:07.621Z,0.7
2023-03-23T14:32:09.583Z,0.6
2023-03-23T14:35:12.646Z,1
2023-03-23T14:38:13.536Z,0.7
2023-03-23T14:41:15.518Z,0.7
2023-03-23T14:44:17.467Z,0.6
2023-03-23T14:47:19.739Z,0.8
2023-03-23T14:50:21.463Z,0.8
2023-03-23T14:53:23.416Z,0.8
2023-03-23T14:56:25.394Z,0.9
2023-03-23T14:59:27.333Z,0.8
2023-03-23T15:02:29.317Z,0.7
2023-03-23T15:05:31.277Z,0.9
2023-03-23T15:08:33.236Z,0.8
2023-03-23T15:11:35.224Z,0.7
2023-03-23T15:14:37.141Z,0.8
2023-03-23T15:17:39.112Z,0.7
2023-03-23T15:20:41.054Z,0.5
2023-03-23T15:23:43.047Z,0.7
2023-03-23T15:26:45.001Z,0.7
2023-03-23T15:29:46.953Z,0.6
2023-03-23T15:32:54.505Z,0.6
2023-03-23T15:35:50.895Z,1
2023-03-23T15:38:52.851Z,0.7
2023-03-23T15:41:54.828Z,0.6
2023-03-23T15:44:56.773Z,0.7
2023-03-23T15:47:58.741Z,1
2023-03-23T15:51:00.696Z,0.7
2023-03-23T15:54:05.635Z,0.6
2023-03-23T15:57:04.642Z,0.8
2023-03-23T16:00:06.582Z,0.7
2023-03-23T16:03:08.743Z,0.8
2023-03-23T16:06:10.648Z,0.7
2023-03-23T16:09:12.545Z,0.8
2023-03-23T16:12:14.518Z,0.9
2023-03-23T16:15:16.456Z,0.8
2023-03-23T16:18:18.419Z,0.9
2023-03-23T16:21:20.420Z,0.7
2023-03-23T16:24:22.338Z,1.1
2023-03-23T16:27:24.342Z,1
2023-03-23T16:30:26.279Z,0.9
2023-03-23T16:33:28.306Z,1
2023-03-23T16:36:30.235Z,0.9
2023-03-23T16:39:32.177Z,1
2023-03-23T16:42:34.147Z,0.9
2023-03-23T16:45:36.161Z,0.9
2023-03-23T16:48:38.111Z,1.1
2023-03-23T16:51:41.078Z,0.9
2023-03-23T16:54:42.037Z,1
2023-03-23T16:57:44.146Z,1.2
2023-03-23T17:00:45.968Z,1.1
2023-03-23T17:03:48.038Z,1.1
2023-03-23T17:06:49.927Z,1.1
2023-03-23T17:09:51.873Z,1.1
2023-03-23T17:12:53.837Z,1.1
2023-03-23T17:15:55.791Z,1
2023-03-23T17:18:57.761Z,1
2023-03-23T17:21:59.755Z,1.1
2023-03-23T17:25:01.756Z,1.3
2023-03-23T17:28:05.529Z,1
2023-03-23T17:31:05.667Z,1.2
2023-03-23T17:34:07.741Z,1
2023-03-23T17:37:09.736Z,1
2023-03-23T17:40:11.676Z,0.9
2023-03-23T17:43:13.660Z,0.8
2023-03-23T17:46:15.601Z,0.9
2023-03-23T17:49:17.595Z,1.1
2023-03-23T17:52:19.543Z,1
2023-03-23T17:55:21.542Z,0.9
2023-03-23T17:58:23.473Z,1
2023-03-23T18:01:25.585Z,1
2023-03-23T18:04:27.575Z,1.1
2023-03-23T18:07:29.544Z,0.9
2023-03-23T18:10:31.486Z,1
2023-03-23T18:13:33.586Z,1.1
2023-03-23T18:16:36.128Z,1.1
2023-03-23T18:19:38.080Z,1.1
2023-03-23T18:22:40.074Z,1
2023-03-23T18:25:42.183Z,1
2023-03-23T18:28:43.974Z,1.2
2023-03-23T18:31:45.970Z,1.1
2023-03-23T18:34:47.939Z,1
2023-03-23T18:37:49.891Z,1.1
2023-03-23T18:40:51.853Z,1.1
2023-03-23T18:43:55.114Z,1
2023-03-23T18:46:55.813Z,1.2
2023-03-23T18:49:57.792Z,1.2
2023-03-23T18:52:59.746Z,1.1
2023-03-23T18:56:01.857Z,1
2023-03-23T18:59:06.366Z,1.1
2023-03-23T19:02:05.924Z,1.3
2023-03-23T19:05:07.874Z,1.1
2023-03-23T19:08:09.807Z,1.2
2023-03-23T19:11:11.797Z,1.1
2023-03-23T19:14:13.894Z,1.4
2023-03-23T19:17:15.851Z,1.4
2023-03-23T19:20:37.388Z,1.3
2023-03-23T19:23:19.763Z,1.2
2023-03-23T19:26:21.808Z,1
2023-03-23T19:29:26.494Z,1.2
2023-03-23T19:32:25.918Z,1.3
2023-03-23T19:35:27.836Z,1.2
2023-03-23T19:38:32.693Z,1.4
2023-03-23T19:41:37.374Z,1.5
2023-03-23T19:44:39.655Z,1.5
2023-03-23T19:47:41.587Z,1.3
2023-03-23T19:50:43.402Z,1.2
2023-03-23T19:53:45.642Z,1.5
2023-03-23T19:56:47.517Z,1.3
2023-03-23T19:59:49.429Z,1.3
2023-03-23T20:02:51.467Z,1.2
2023-03-23T20:05:53.390Z,1.6
2023-03-23T20:08:55.643Z,1.5
2023-03-23T20:11:57.459Z,1.5
2023-03-23T20:15:02.183Z,1.2
2023-03-23T20:18:04.853Z,1.4
2023-03-23T20:21:06.775Z,1.3
2023-03-23T20:24:08.185Z,1.5
2023-03-23T20:27:10.255Z,1.4
2023-03-23T20:30:12.172Z,1.2
2023-03-23T20:33:14.505Z,1.2
2023-03-23T20:36:16.428Z,1.2
2023-03-23T20:39:18.449Z,0.9
2023-03-23T20:42:20.396Z,1.1
2023-03-23T20:45:22.348Z,1
2023-03-23T20:48:24.304Z,1
2023-03-23T20:51:32.894Z,1
2023-03-23T20:54:34.784Z,1.1
2023-03-23T20:57:36.796Z,1.4
2023-03-23T21:00:38.827Z,1.3
2023-03-23T21:03:40.871Z,1.4
2023-03-23T21:06:42.673Z,1.2
2023-03-23T21:09:44.635Z,1.6
2023-03-23T21:12:46.621Z,1.5
2023-03-23T21:15:48.565Z,1.6
2023-03-23T21:18:50.542Z,1.6
2023-03-23T21:21:56.117Z,2
2023-03-23T21:24:54.466Z,2
2023-03-23T21:27:56.435Z,2.3
2023-03-23T21:30:58.438Z,2.2
2023-03-23T21:34:00.464Z,2.2
2023-03-23T21:37:02.406Z,2.7
2023-03-23T21:40:04.388Z,2.2
2023-03-23T21:43:06.308Z,2.3
2023-03-23T21:46:08.265Z,2.3
2023-03-23T21:49:10.237Z,2.5
2023-03-23T21:52:12.183Z,2.2
2023-03-23T21:55:14.150Z,2.6
2023-03-23T21:58:16.117Z,2.2
2023-03-23T22:01:18.133Z,2
2023-03-23T22:04:20.051Z,2.3
2023-03-23T22:07:22.015Z,2.3
2023-03-23T22:10:23.978Z,2.4
2023-03-23T22:13:25.940Z,2.3
2023-03-23T22:16:28.065Z,2.2
2023-03-23T22:19:30.108Z,2.4
2023-03-23T22:22:31.909Z,2.5
2023-03-23T22:25:33.876Z,2.6
2023-03-23T22:28:35.882Z,2.5
2023-03-23T22:31:37.841Z,2.4
2023-03-23T22:34:39.942Z,2.5
2023-03-23T22:37:41.900Z,2.5
2023-03-23T22:40:44.118Z,2.4
2023-03-23T22:43:45.890Z,2.7
2023-03-23T22:46:47.889Z,2.6
2023-03-23T22:49:50.050Z,3
2023-03-23T22:52:51.813Z,2.7
2023-03-23T22:55:53.753Z,3.2
2023-03-23T22:58:55.712Z,2.7
2023-03-23T23:01:57.674Z,2.9
2023-03-23T23:04:59.659Z,2.4
2023-03-23T23:08:01.625Z,2.4
2023-03-23T23:11:03.730Z,2.5
2023-03-23T23:14:05.715Z,2.8
2023-03-23T23:17:07.659Z,3.2
2023-03-23T23:20:09.585Z,2.8
2023-03-23T23:23:11.552Z,3.6
2023-03-23T23:26:13.535Z,3.1
2023-03-23T23:29:15.470Z,3
2023-03-23T23:32:17.538Z,3.3
2023-03-23T23:35:19.492Z,3.4
2023-03-23T23:38:21.460Z,3.1
2023-03-23T23:41:23.451Z,3.1
2023-03-23T23:44:25.402Z,3
2023-03-23T23:47:27.417Z,3.8
2023-03-23T23:50:29.331Z,3.1
2023-03-23T23:53:31.286Z,3.4
2023-03-23T23:56:33.302Z,3.2
2023-03-23T23:59:35.204Z,3.1
